Map

Track Data

SID SEASON NUMBER BASIN SUBBASIN NAME ISO_TIME NATURE LAT LON WMO_WIND WMO_PRES WMO_AGENCY TRACK_TYPE DIST2LAND LANDFALL IFLAG USA_AGENCY USA_ATCF_ID USA_LAT USA_LON USA_RECORD USA_STATUS USA_WIND USA_PRES USA_SSHS USA_R34_NE USA_R34_SE USA_R34_SW USA_R34_NW USA_R50_NE USA_R50_SE USA_R50_SW USA_R50_NW USA_R64_NE USA_R64_SE USA_R64_SW USA_R64_NW USA_POCI USA_ROCI USA_RMW USA_EYE TOKYO_LAT TOKYO_LON TOKYO_GRADE TOKYO_WIND TOKYO_PRES TOKYO_R50_DIR TOKYO_R50_LONG TOKYO_R50_SHORT TOKYO_R30_DIR TOKYO_R30_LONG TOKYO_R30_SHORT TOKYO_LAND CMA_LAT CMA_LON CMA_CAT CMA_WIND CMA_PRES HKO_LAT HKO_LON HKO_CAT HKO_WIND HKO_PRES NEWDELHI_LAT NEWDELHI_LON NEWDELHI_GRADE NEWDELHI_WIND NEWDELHI_PRES NEWDELHI_CI NEWDELHI_DP NEWDELHI_POCI REUNION_LAT REUNION_LON REUNION_TYPE REUNION_WIND REUNION_PRES REUNION_TNUM REUNION_CI REUNION_RMW REUNION_R34_NE REUNION_R34_SE REUNION_R34_SW REUNION_R34_NW REUNION_R50_NE REUNION_R50_SE REUNION_R50_SW REUNION_R50_NW REUNION_R64_NE REUNION_R64_SE REUNION_R64_SW REUNION_R64_NW BOM_LAT BOM_LON BOM_TYPE BOM_WIND BOM_PRES BOM_TNUM BOM_CI BOM_RMW BOM_R34_NE BOM_R34_SE BOM_R34_SW BOM_R34_NW BOM_R50_NE BOM_R50_SE BOM_R50_SW BOM_R50_NW BOM_R64_NE BOM_R64_SE BOM_R64_SW BOM_R64_NW BOM_ROCI BOM_POCI BOM_EYE BOM_POS_METHOD BOM_PRES_METHOD NADI_LAT NADI_LON NADI_CAT NADI_WIND NADI_PRES WELLINGTON_LAT WELLINGTON_LON WELLINGTON_WIND WELLINGTON_PRES DS824_LAT DS824_LON DS824_STAGE DS824_WIND DS824_PRES TD9636_LAT TD9636_LON TD9636_STAGE TD9636_WIND TD9636_PRES TD9635_LAT TD9635_LON TD9635_WIND TD9635_PRES TD9635_ROCI NEUMANN_LAT NEUMANN_LON NEUMANN_CLASS NEUMANN_WIND NEUMANN_PRES MLC_LAT MLC_LON MLC_CLASS MLC_WIND MLC_PRES USA_GUST BOM_GUST BOM_GUST_PER REUNION_GUST REUNION_GUST_PER USA_SEAHGT USA_SEARAD_NE USA_SEARAD_SE USA_SEARAD_SW USA_SEARAD_NW STORM_SPEED STORM_DIR
1973250N18274 1973 94 NA CS NOT_NAMED 1973-09-06 12:00:00 TS 18.0000 -86.0000 20 hurdat_atl main 191 161 O_____________ hurdat_atl AL111973 18.0000 -86.0000 TD 20 -1 7 326
1973250N18274 1973 94 NA CS NOT_NAMED 1973-09-06 15:00:00 TS 18.2875 -86.1974 main 161 130 P_____________ AL111973 18.2875 -86.1974 TD 22 -1 7 328
1973250N18274 1973 94 NA CS NOT_NAMED 1973-09-06 18:00:00 TS 18.6000 -86.4000 25 hurdat_atl main 130 100 O_____________ hurdat_atl AL111973 18.6000 -86.4000 TD 25 -1 8 330
1973250N18274 1973 94 NA CS NOT_NAMED 1973-09-06 21:00:00 TS 18.9500 -86.6075 main 97 66 P_____________ AL111973 18.9500 -86.6075 TD 25 -1 8 332
1973250N18274 1973 94 NA CS NOT_NAMED 1973-09-07 00:00:00 TS 19.3000 -86.8000 25 hurdat_atl main 66 52 O_____________ hurdat_atl AL111973 19.3000 -86.8000 TD 25 -1 7 334
1973250N18274 1973 94 NA CS NOT_NAMED 1973-09-07 03:00:00 TS 19.6074 -86.9502 main 43 41 P_____________ AL111973 19.6074 -86.9502 TD 25 -1 7 335
1973250N18274 1973 94 NA CS NOT_NAMED 1973-09-07 06:00:00 TS 19.9000 -87.1000 25 hurdat_atl main 41 31 O_____________ hurdat_atl AL111973 19.9000 -87.1000 TD 25 -1 6 334
1973250N18274 1973 94 NA CS NOT_NAMED 1973-09-07 09:00:00 TS 20.1622 -87.2333 main 30 0 P_____________ AL111973 20.1622 -87.2333 TD 25 -1 7 328
1973250N18274 1973 94 NA NA NOT_NAMED 1973-09-07 12:00:00 TS 20.5000 -87.5000 25 hurdat_atl main 0 0 O_____________ hurdat_atl AL111973 20.5000 -87.5000 TD 25 -1 12 316
1973250N18274 1973 94 NA NA NOT_NAMED 1973-09-07 15:00:00 TS 21.0133 -88.1063 main 0 0 P_____________ AL111973 21.0133 -88.1063 TD 25 -1 16 314
1973250N18274 1973 94 NA GM NOT_NAMED 1973-09-07 18:00:00 TS 21.6000 -88.7000 25 hurdat_atl main 15 15 O_____________ hurdat_atl AL111973 21.6000 -88.7000 TD 25 -1 13 327
1973250N18274 1973 94 NA GM NOT_NAMED 1973-09-07 21:00:00 TS 22.1420 -88.8888 main 73 73 P_____________ AL111973 22.1420 -88.8888 TD 25 -1 11 346
1973250N18274 1973 94 NA GM NOT_NAMED 1973-09-08 00:00:00 TS 22.7000 -89.0000 25 hurdat_atl main 140 140 O_____________ hurdat_atl AL111973 22.7000 -89.0000 TD 25 -1 12 341
1973250N18274 1973 94 NA GM NOT_NAMED 1973-09-08 03:00:00 TS 23.3000 -89.3124 main 213 213 P_____________ AL111973 23.3000 -89.3124 TD 27 -1 14 332
1973250N18274 1973 94 NA GM NOT_NAMED 1973-09-08 06:00:00 TS 23.9000 -89.7000 30 hurdat_atl main 291 291 O_____________ hurdat_atl AL111973 23.9000 -89.7000 TD 30 -1 14 327
1973250N18274 1973 94 NA GM NOT_NAMED 1973-09-08 09:00:00 TS 24.4877 -90.1519 main 369 369 P_____________ AL111973 24.4877 -90.1519 TD 30 -1 13 326
1973250N18274 1973 94 NA GM NOT_NAMED 1973-09-08 12:00:00 TS 25.0000 -90.5000 30 hurdat_atl main 429 413 O_____________ hurdat_atl AL111973 25.0000 -90.5000 TD 30 -1 10 337
1973250N18274 1973 94 NA GM NOT_NAMED 1973-09-08 15:00:00 TS 25.3723 -90.5607 main 413 379 P_____________ AL111973 25.3723 -90.5607 TD 30 -1 7 0
1973250N18274 1973 94 NA GM NOT_NAMED 1973-09-08 18:00:00 TS 25.7000 -90.5000 30 hurdat_atl main 379 335 O_____________ hurdat_atl AL111973 25.7000 -90.5000 TD 30 -1 7 4
1973250N18274 1973 94 NA GM NOT_NAMED 1973-09-08 21:00:00 TS 26.1000 -90.5000 main 335 290 P_____________ AL111973 26.1000 -90.5000 TD 30 -1 8 1
1973250N18274 1973 94 NA GM NOT_NAMED 1973-09-09 00:00:00 TS 26.5000 -90.5000 30 hurdat_atl main 290 256 O_____________ hurdat_atl AL111973 26.5000 -90.5000 TD 30 -1 8 0
1973250N18274 1973 94 NA GM NOT_NAMED 1973-09-09 03:00:00 TS 26.8500 -90.5000 main 245 212 P_____________ AL111973 26.8500 -90.5000 TD -1 7 0
1973250N18274 1973 94 NA GM NOT_NAMED 1973-09-09 06:00:00 TS 27.2000 -90.5000 hurdat_atl main 212 167 O_____________ hurdat_atl AL111973 27.2000 -90.5000 TD -1 8 0
1973250N18274 1973 94 NA GM NOT_NAMED 1973-09-09 09:00:00 TS 27.6525 -90.4776 main 156 123 P_____________ AL111973 27.6525 -90.4776 TD -1 8 1
1973250N18274 1973 94 NA GM NOT_NAMED 1973-09-09 12:00:00 TS 28.0000 -90.5000 hurdat_atl main 123 111 O_____________ hurdat_atl AL111973 28.0000 -90.5000 TD -1 4 343
1973250N18274 1973 94 NA GM NOT_NAMED 1973-09-09 15:00:00 TS 28.0600 -90.6201 main 111 111 P_____________ AL111973 28.0600 -90.6201 TD -1 3 270
1973250N18274 1973 94 NA GM NOT_NAMED 1973-09-09 18:00:00 TS 28.0000 -90.8000 30 hurdat_atl main 123 122 O_____________ hurdat_atl AL111973 28.0000 -90.8000 TD 30 -1 3 260
1973250N18274 1973 94 NA GM NOT_NAMED 1973-09-09 21:00:00 TS 28.0000 -90.9925 main 123 123 P_____________ AL111973 28.0000 -90.9925 TD 30 -1 4 270
1973250N18274 1973 94 NA GM NOT_NAMED 1973-09-10 00:00:00 TS 28.0000 -91.2000 30 hurdat_atl main 126 126 O_____________ hurdat_atl AL111973 28.0000 -91.2000 TD 30 -1 4 270
1973250N18274 1973 94 NA GM NOT_NAMED 1973-09-10 03:00:00 TS 28.0000 -91.4000 main 132 132 P_____________ AL111973 28.0000 -91.4000 TD 30 -1 4 270
1973250N18274 1973 94 NA GM NOT_NAMED 1973-09-10 06:00:00 TS 28.0000 -91.6000 30 hurdat_atl main 140 140 O_____________ hurdat_atl AL111973 28.0000 -91.6000 TD 30 -1 3 270
1973250N18274 1973 94 NA GM NOT_NAMED 1973-09-10 09:00:00 TS 27.9997 -91.7550 main 150 150 P_____________ AL111973 27.9997 -91.7550 TD 30 -1 4 270
1973250N18274 1973 94 NA GM NOT_NAMED 1973-09-10 12:00:00 TS 28.0000 -92.0000 30 hurdat_atl main 160 160 O_____________ hurdat_atl AL111973 28.0000 -92.0000 TD 30 -1 6 270
1973250N18274 1973 94 NA GM NOT_NAMED 1973-09-10 15:00:00 TS 28.0002 -92.4550 main 168 168 P_____________ AL111973 28.0002 -92.4550 TD 30 -1 9 270
1973250N18274 1973 94 NA GM NOT_NAMED 1973-09-10 18:00:00 TS 28.0000 -93.0000 30 hurdat_atl main 180 180 O_____________ hurdat_atl AL111973 28.0000 -93.0000 TD 30 -1 9 270
1973250N18274 1973 94 NA GM NOT_NAMED 1973-09-10 21:00:00 TS 27.9998 -93.5000 main 192 161 P_____________ AL111973 27.9998 -93.5000 TD 30 -1 9 270
1973250N18274 1973 94 NA GM NOT_NAMED 1973-09-11 00:00:00 TS 28.0000 -94.0000 30 hurdat_atl main 161 130 O_____________ hurdat_atl AL111973 28.0000 -94.0000 TD 30 -1 9 270
1973250N18274 1973 94 NA GM NOT_NAMED 1973-09-11 03:00:00 TS 27.9998 -94.5000 main 130 107 P_____________ AL111973 27.9998 -94.5000 TD 30 -1 9 270
1973250N18274 1973 94 NA GM NOT_NAMED 1973-09-11 06:00:00 TS 28.0000 -95.0000 30 hurdat_atl main 107 77 O_____________ hurdat_atl AL111973 28.0000 -95.0000 TD 30 -1 10 268
1973250N18274 1973 94 NA GM NOT_NAMED 1973-09-11 09:00:00 TS 27.9629 -95.5975 main 77 59 P_____________ AL111973 27.9629 -95.5975 TD 30 -1 9 270
1973250N18274 1973 94 NA GM NOT_NAMED 1973-09-11 12:00:00 TS 28.0000 -96.0000 30 hurdat_atl main 59 38 O_____________ hurdat_atl AL111973 28.0000 -96.0000 TD 30 -1 4 309
1973250N18274 1973 94 NA GM NOT_NAMED 1973-09-11 15:00:00 TS 28.2123 -95.9403 main 44 29 P_____________ AL111973 28.2123 -95.9403 TD 30 -1 6 28
1973250N18274 1973 94 NA GM NOT_NAMED 1973-09-11 18:00:00 TS 28.5000 -95.7000 30 hurdat_atl main 29 14 O_____________ hurdat_atl AL111973 28.5000 -95.7000 TD 30 -1 6 29
1973250N18274 1973 94 NA GM NOT_NAMED 1973-09-11 21:00:00 TS 28.7500 -95.5998 main 14 0 P_____________ AL111973 28.7500 -95.5998 TD 30 -1 5 20
1973250N18274 1973 94 NA NA NOT_NAMED 1973-09-12 00:00:00 TS 29.0000 -95.5000 30 hurdat_atl main 0 0 O_____________ hurdat_atl AL111973 29.0000 -95.5000 TD 30 -1 5 24
1973250N18274 1973 94 NA NA NOT_NAMED 1973-09-12 03:00:00 TS 29.2500 -95.3500 main 0 0 P_____________ AL111973 29.2500 -95.3500 TD 30 -1 6 28
1973250N18274 1973 94 NA NA NOT_NAMED 1973-09-12 06:00:00 TS 29.5000 -95.2000 30 hurdat_atl main 0 0 O_____________ hurdat_atl AL111973 29.5000 -95.2000 TD 30 -1 6 25
1973250N18274 1973 94 NA NA NOT_NAMED 1973-09-12 09:00:00 TS 29.7500 -95.0875 main 0 0 P_____________ AL111973 29.7500 -95.0875 TD -1 5 19
1973250N18274 1973 94 NA NA NOT_NAMED 1973-09-12 12:00:00 TS 30.0000 -95.0000 hurdat_atl main 0 O_____________ hurdat_atl AL111973 30.0000 -95.0000 TD -1 5 18

About IBTrACS Database

This database is a web-friendly format of International Best Track Archive for Climate Stewardship (IBTrACS), a global best track data archive curated by NOAA dating back to 1842.

Updated: 2021-12-01